Terminal Aerodrome Forecast
Issued by NWS

Current Version | Previous Version | Graphics & Text | Print | Product List | Glossary On
Versions: 1 2 3 4 5 6 7 8 9 10 11 12 13 14 15 16 17 18 19 20
000
FTUS41 KILN 281300 AAA
TAFLUK
TAF AMD
KLUK 281333Z 2814/2912 32010KT P6SM BKN035
     FM281700 32011KT P6SM VCSH BKN035
     FM290000 34003KT P6SM SCT040=

USA.gov is the U.S. government's official web portal to all federal, state and local government web resources and services.